createdAt,value
2022-07-29T00:01:50.727Z,66.63
2022-07-29T00:04:17.612Z,68.40
2022-07-29T00:06:44.423Z,68.79
2022-07-29T00:09:10.878Z,67.83
2022-07-29T00:11:37.290Z,67.46
2022-07-29T00:14:03.806Z,68.39
2022-07-29T00:16:30.399Z,68.00
2022-07-29T00:19:00.557Z,67.52
2022-07-29T00:21:28.490Z,66.97
2022-07-29T00:23:54.928Z,66.27
2022-07-29T00:26:21.362Z,65.85
2022-07-29T00:28:47.764Z,65.90
2022-07-29T00:31:14.253Z,65.63
2022-07-29T00:33:40.698Z,64.87
2022-07-29T00:36:07.223Z,64.80
2022-07-29T00:38:33.690Z,64.99
2022-07-29T00:41:00.150Z,65.40
2022-07-29T00:43:26.635Z,65.96
2022-07-29T00:45:53.435Z,66.04
2022-07-29T00:48:19.832Z,66.02
2022-07-29T00:50:46.248Z,66.12
2022-07-29T00:53:12.899Z,67.55
2022-07-29T00:55:39.312Z,69.48
2022-07-29T00:58:05.911Z,71.49
2022-07-29T01:00:32.379Z,71.50
2022-07-29T01:02:59.383Z,72.83
2022-07-29T01:05:50.751Z,71.95
2022-07-29T01:08:15.553Z,73.17
2022-07-29T01:10:42.879Z,76.21
2022-07-29T01:13:10.187Z,76.51
2022-07-29T01:15:49.026Z,77.76
2022-07-29T01:18:23.778Z,78.19
2022-07-29T01:21:26.654Z,78.42
2022-07-29T01:24:18.591Z,80.98
2022-07-29T01:27:11.579Z,82.16
2022-07-29T01:29:46.494Z,82.57
2022-07-29T01:32:28.755Z,82.19
2022-07-29T01:34:59.865Z,83.63
2022-07-29T01:37:27.434Z,85.06
2022-07-29T01:39:56.509Z,85.13
2022-07-29T01:42:32.764Z,86.96
2022-07-29T01:45:21.473Z,89.04
2022-07-29T01:47:59.443Z,91.76
2022-07-29T01:50:34.658Z,89.75
2022-07-29T01:53:03.557Z,88.20
2022-07-29T01:55:32.603Z,88.84
2022-07-29T01:58:00.084Z,90.64
2022-07-29T02:00:27.286Z,91.87
2022-07-29T02:02:54.859Z,88.02
2022-07-29T02:05:23.151Z,85.65
2022-07-29T02:07:50.512Z,85.80
2022-07-29T02:10:19.369Z,87.67
2022-07-29T02:12:52.543Z,87.31
2022-07-29T02:15:19.866Z,86.95
2022-07-29T02:17:50.426Z,87.30
2022-07-29T02:20:17.133Z,92.35
2022-07-29T02:22:45.171Z,92.57
2022-07-29T02:25:13.736Z,94.00
2022-07-29T02:27:41.504Z,93.86
2022-07-29T02:30:08.559Z,94.87
2022-07-29T02:32:39.053Z,95.52
2022-07-29T02:35:08.248Z,96.20
2022-07-29T02:37:34.933Z,100.00
2022-07-29T02:40:01.442Z,99.03
2022-07-29T02:42:28.881Z,99.17
2022-07-29T02:44:55.828Z,100.00
2022-07-29T02:47:31.746Z,100.00
2022-07-29T02:50:15.001Z,100.00
2022-07-29T02:52:45.415Z,100.00
2022-07-29T02:55:19.916Z,100.00
2022-07-29T02:57:57.514Z,100.00
2022-07-29T03:00:28.339Z,100.00
2022-07-29T03:02:57.262Z,100.00
2022-07-29T03:05:23.866Z,100.00
2022-07-29T03:07:56.570Z,100.00
2022-07-29T03:10:23.702Z,100.00
2022-07-29T03:12:50.653Z,100.00
2022-07-29T03:15:17.276Z,100.00
2022-07-29T03:17:44.208Z,100.00
2022-07-29T03:20:12.901Z,100.00
2022-07-29T03:22:44.317Z,100.00
2022-07-29T03:25:12.110Z,100.00
2022-07-29T03:27:38.533Z,100.00
2022-07-29T03:30:06.128Z,100.00
2022-07-29T03:32:35.471Z,100.00
2022-07-29T03:35:02.033Z,100.00
2022-07-29T03:37:28.607Z,100.00
2022-07-29T03:39:57.750Z,100.00
2022-07-29T03:42:34.086Z,100.00
2022-07-29T03:45:03.273Z,100.00
2022-07-29T03:47:50.120Z,100.00
2022-07-29T03:50:20.136Z,100.00
2022-07-29T03:52:46.783Z,100.00
2022-07-29T03:55:13.844Z,100.00
2022-07-29T03:57:41.632Z,100.00
2022-07-29T04:00:09.380Z,100.00
2022-07-29T04:02:36.794Z,100.00
2022-07-29T04:05:03.491Z,100.00
2022-07-29T04:07:30.665Z,100.00
2022-07-29T04:09:57.082Z,100.00
2022-07-29T04:12:23.934Z,100.00
2022-07-29T04:14:51.078Z,100.00
2022-07-29T04:17:17.819Z,100.00
2022-07-29T04:19:44.223Z,100.00
2022-07-29T04:22:10.686Z,100.00
2022-07-29T04:24:37.147Z,100.00
2022-07-29T04:27:03.587Z,100.00
2022-07-29T04:29:29.989Z,100.00
2022-07-29T04:31:56.413Z,100.00
2022-07-29T04:34:22.824Z,100.00
2022-07-29T04:36:54.470Z,100.00
2022-07-29T04:39:23.185Z,100.00
2022-07-29T04:41:51.032Z,100.00
2022-07-29T04:44:19.414Z,100.00
2022-07-29T04:46:46.327Z,99.58
2022-07-29T04:49:12.825Z,98.77
2022-07-29T04:51:39.365Z,100.00
2022-07-29T04:54:05.792Z,100.00
2022-07-29T04:56:32.285Z,100.00
2022-07-29T04:58:58.706Z,99.04
2022-07-29T05:01:25.182Z,99.13
2022-07-29T05:03:53.103Z,99.29
2022-07-29T05:06:21.348Z,100.00
2022-07-29T05:08:47.777Z,99.04
2022-07-29T05:11:16.946Z,97.27
2022-07-29T05:13:47.040Z,98.44
2022-07-29T05:16:14.348Z,98.38
2022-07-29T05:18:40.997Z,98.11
2022-07-29T05:21:07.512Z,97.58
2022-07-29T05:23:34.085Z,96.38
2022-07-29T05:26:00.516Z,96.36
2022-07-29T05:28:26.908Z,97.05
2022-07-29T05:30:53.409Z,97.69
2022-07-29T05:33:35.271Z,94.78
2022-07-29T05:36:09.193Z,94.24
2022-07-29T05:38:36.431Z,97.13
2022-07-29T05:41:03.144Z,97.07
2022-07-29T05:43:29.883Z,95.64
2022-07-29T05:45:56.946Z,94.73
2022-07-29T05:48:23.444Z,92.46
2022-07-29T05:50:49.907Z,93.80
2022-07-29T05:53:19.480Z,93.33
2022-07-29T05:55:47.437Z,93.98
2022-07-29T05:58:13.842Z,96.07
2022-07-29T06:00:40.815Z,94.38
2022-07-29T06:03:07.201Z,93.92
2022-07-29T06:05:33.647Z,93.11
2022-07-29T06:08:00.070Z,93.73
2022-07-29T06:10:26.922Z,93.37
2022-07-29T06:12:53.776Z,92.46
2022-07-29T06:15:20.365Z,92.45
2022-07-29T06:18:00.597Z,92.80
2022-07-29T06:20:30.968Z,91.73
2022-07-29T06:22:57.991Z,90.52
2022-07-29T06:25:24.459Z,90.46
2022-07-29T06:27:50.855Z,90.37
2022-07-29T06:30:17.274Z,90.15
2022-07-29T06:32:43.675Z,89.90
2022-07-29T06:35:37.847Z,89.37
2022-07-29T06:37:56.704Z,90.30
2022-07-29T06:40:44.811Z,90.54
2022-07-29T06:43:11.703Z,87.33
2022-07-29T06:45:39.441Z,85.36
2022-07-29T06:48:06.048Z,85.11
2022-07-29T06:50:32.656Z,86.35
2022-07-29T06:52:59.090Z,83.38
2022-07-29T06:55:25.697Z,81.76
2022-07-29T06:57:52.279Z,81.08
2022-07-29T07:00:18.728Z,80.04
2022-07-29T07:02:45.178Z,78.44
2022-07-29T07:05:11.646Z,77.21
2022-07-29T07:07:38.036Z,78.45
2022-07-29T07:10:04.829Z,78.04
2022-07-29T07:12:31.233Z,79.62
2022-07-29T07:14:57.641Z,77.91
2022-07-29T07:17:24.068Z,74.13
2022-07-29T07:19:50.460Z,75.23
2022-07-29T07:22:16.881Z,74.29
2022-07-29T07:24:43.281Z,76.55
2022-07-29T07:27:09.724Z,75.13
2022-07-29T07:29:36.329Z,75.12
2022-07-29T07:32:03.202Z,75.27
2022-07-29T07:34:30.975Z,75.85
2022-07-29T07:36:57.417Z,74.42
2022-07-29T07:39:23.830Z,72.65
2022-07-29T07:41:50.261Z,72.59
2022-07-29T07:44:17.216Z,74.19
2022-07-29T07:46:45.777Z,72.28
2022-07-29T07:49:12.472Z,73.23
2022-07-29T07:51:39.528Z,71.80
2022-07-29T07:54:05.967Z,71.07
2022-07-29T07:56:35.388Z,72.52
2022-07-29T07:59:02.101Z,73.09
2022-07-29T08:01:28.856Z,72.96
2022-07-29T08:03:55.294Z,72.10
2022-07-29T08:06:21.761Z,70.99
2022-07-29T08:08:48.274Z,69.18
2022-07-29T08:11:15.456Z,67.87
2022-07-29T08:13:41.907Z,63.99
2022-07-29T08:16:16.343Z,64.06
2022-07-29T08:18:44.461Z,64.24
2022-07-29T08:21:11.207Z,64.53
2022-07-29T08:23:50.579Z,63.75
2022-07-29T08:26:21.728Z,62.32
2022-07-29T08:28:51.142Z,61.29
2022-07-29T08:31:17.716Z,61.51
2022-07-29T08:33:44.207Z,61.43
2022-07-29T08:36:10.642Z,59.36
2022-07-29T08:38:37.047Z,59.70
2022-07-29T08:41:03.572Z,60.36
2022-07-29T08:43:30.037Z,61.35
2022-07-29T08:45:56.495Z,59.52
2022-07-29T08:48:23.748Z,61.16
2022-07-29T08:50:53.884Z,60.43
2022-07-29T08:53:20.495Z,60.43
2022-07-29T08:55:50.363Z,60.44
2022-07-29T08:58:17.883Z,61.26
2022-07-29T09:00:53.433Z,59.34
2022-07-29T09:03:24.681Z,60.38
2022-07-29T09:05:52.020Z,64.19
2022-07-29T09:08:18.701Z,64.41
2022-07-29T09:10:45.659Z,64.26
2022-07-29T09:13:12.338Z,66.48
2022-07-29T09:15:38.732Z,65.35
2022-07-29T09:18:05.168Z,63.89
2022-07-29T09:20:51.554Z,64.63
2022-07-29T09:23:23.443Z,66.26
2022-07-29T09:25:51.111Z,68.60
2022-07-29T09:28:17.848Z,68.33
2022-07-29T09:30:59.114Z,67.70
2022-07-29T09:33:32.460Z,67.61
2022-07-29T09:36:07.500Z,70.09
2022-07-29T09:38:34.889Z,71.25
2022-07-29T09:41:05.790Z,71.21
2022-07-29T09:43:33.065Z,70.83
2022-07-29T09:46:12.890Z,70.95
2022-07-29T09:48:39.473Z,69.32
2022-07-29T09:51:07.335Z,68.84
2022-07-29T09:53:35.548Z,69.10
2022-07-29T09:56:02.543Z,75.03
2022-07-29T09:58:29.075Z,78.93
2022-07-29T10:00:56.310Z,80.61
2022-07-29T10:03:23.785Z,80.77
2022-07-29T10:06:10.533Z,79.26
2022-07-29T10:08:37.585Z,79.81
2022-07-29T10:11:12.384Z,81.89
2022-07-29T10:13:39.693Z,83.41
2022-07-29T10:16:06.807Z,84.36
2022-07-29T10:18:33.660Z,85.34
2022-07-29T10:21:02.013Z,85.92
2022-07-29T10:23:29.357Z,87.08
2022-07-29T10:26:13.029Z,89.08
2022-07-29T10:28:39.449Z,90.66
2022-07-29T10:31:07.739Z,92.97
2022-07-29T10:33:53.519Z,93.75
2022-07-29T10:36:25.860Z,94.67
2022-07-29T10:39:03.344Z,96.78
2022-07-29T10:41:51.491Z,99.00
2022-07-29T10:44:23.178Z,98.75
2022-07-29T10:46:51.545Z,99.61
2022-07-29T10:49:19.438Z,99.05
2022-07-29T10:52:06.093Z,98.32
2022-07-29T10:54:47.147Z,100.00
2022-07-29T10:57:14.025Z,100.00
2022-07-29T10:59:41.305Z,100.00
2022-07-29T11:02:42.758Z,100.00
2022-07-29T11:05:10.163Z,100.00
2022-07-29T11:07:46.168Z,100.00
2022-07-29T11:10:16.425Z,100.00
2022-07-29T11:12:42.835Z,100.00
2022-07-29T11:15:18.095Z,100.00
2022-07-29T11:17:59.475Z,100.00
2022-07-29T11:20:32.727Z,100.00
2022-07-29T11:22:59.842Z,100.00
2022-07-29T11:25:42.514Z,100.00
2022-07-29T11:28:22.286Z,100.00
2022-07-29T11:30:53.176Z,100.00
2022-07-29T11:33:54.730Z,100.00
2022-07-29T11:36:19.920Z,100.00
2022-07-29T11:39:26.903Z,100.00
2022-07-29T11:42:32.643Z,100.00
2022-07-29T11:45:08.492Z,100.00
2022-07-29T11:47:48.922Z,100.00
2022-07-29T11:50:37.647Z,100.00
2022-07-29T11:53:13.120Z,100.00
2022-07-29T11:55:51.044Z,100.00
2022-07-29T11:58:25.069Z,100.00
2022-07-29T12:00:52.659Z,100.00
2022-07-29T12:03:32.776Z,100.00
2022-07-29T12:06:02.134Z,100.00
2022-07-29T12:08:28.688Z,100.00
2022-07-29T12:10:55.119Z,100.00
2022-07-29T12:13:22.781Z,100.00
2022-07-29T12:16:03.953Z,100.00
2022-07-29T12:18:30.522Z,100.00
2022-07-29T12:21:04.507Z,100.00
2022-07-29T12:23:34.746Z,100.00
2022-07-29T12:26:04.981Z,100.00
2022-07-29T12:28:38.473Z,100.00
2022-07-29T12:31:06.079Z,100.00
2022-07-29T12:33:35.803Z,100.00
2022-07-29T12:36:07.626Z,100.00
2022-07-29T12:38:36.093Z,100.00
2022-07-29T12:41:04.560Z,100.00
2022-07-29T12:43:31.348Z,100.00
2022-07-29T12:45:58.261Z,100.00
2022-07-29T12:48:35.560Z,100.00
2022-07-29T12:51:03.833Z,100.00
2022-07-29T12:53:31.016Z,100.00
2022-07-29T12:56:00.447Z,100.00
2022-07-29T12:58:51.089Z,100.00
2022-07-29T13:01:20.237Z,100.00
2022-07-29T13:03:57.052Z,100.00
2022-07-29T13:06:37.817Z,100.00
2022-07-29T13:09:19.634Z,100.00
2022-07-29T13:11:51.215Z,100.00
2022-07-29T13:14:37.823Z,100.00
2022-07-29T13:17:14.070Z,100.00
2022-07-29T13:19:45.599Z,100.00
2022-07-29T13:22:15.467Z,100.00
2022-07-29T13:24:54.759Z,100.00
2022-07-29T13:27:23.867Z,100.00
2022-07-29T13:29:53.208Z,100.00
2022-07-29T13:32:28.240Z,100.00
2022-07-29T13:35:00.997Z,100.00
2022-07-29T13:37:30.434Z,100.00
2022-07-29T13:39:57.673Z,100.00
2022-07-29T13:42:24.573Z,100.00
2022-07-29T13:44:52.519Z,100.00
2022-07-29T13:47:22.763Z,94.58
2022-07-29T13:49:59.301Z,82.77
2022-07-29T13:52:25.708Z,83.28
2022-07-29T13:54:52.149Z,77.77
2022-07-29T13:57:18.608Z,79.85
2022-07-29T13:59:46.187Z,73.62
2022-07-29T14:02:15.694Z,70.63
2022-07-29T14:04:42.273Z,68.17
2022-07-29T14:07:08.747Z,66.05
2022-07-29T14:09:40.995Z,64.53
2022-07-29T14:12:08.519Z,66.67
2022-07-29T14:14:36.454Z,65.69
2022-07-29T14:17:04.154Z,65.84
2022-07-29T14:19:32.803Z,65.55
2022-07-29T14:21:59.705Z,69.74
2022-07-29T14:24:26.408Z,67.30
2022-07-29T14:26:52.852Z,70.72
2022-07-29T14:29:19.282Z,69.59
2022-07-29T14:31:45.769Z,70.12
2022-07-29T14:34:12.270Z,70.25
2022-07-29T14:36:38.751Z,71.42
2022-07-29T14:39:05.165Z,66.80
2022-07-29T14:41:31.626Z,66.19
2022-07-29T14:44:01.384Z,62.60
2022-07-29T14:46:28.515Z,62.71
2022-07-29T14:48:55.289Z,62.47
2022-07-29T14:51:21.833Z,63.48
2022-07-29T14:53:48.245Z,63.20
2022-07-29T14:56:35.649Z,64.85
2022-07-29T14:59:01.666Z,64.24
2022-07-29T15:01:28.256Z,63.74
2022-07-29T15:03:59.550Z,66.46
2022-07-29T15:06:26.955Z,67.04
2022-07-29T15:08:53.380Z,67.52
2022-07-29T15:11:19.888Z,66.87
2022-07-29T15:13:46.787Z,65.35
2022-07-29T15:16:13.266Z,65.45
2022-07-29T15:18:39.727Z,65.08
2022-07-29T15:21:07.785Z,64.42
2022-07-29T15:23:36.986Z,62.65
2022-07-29T15:26:04.268Z,62.20
2022-07-29T15:28:30.789Z,61.04
2022-07-29T15:30:57.245Z,62.19
2022-07-29T15:33:24.081Z,61.72
2022-07-29T15:35:50.523Z,63.16
2022-07-29T15:38:17.270Z,61.25
2022-07-29T15:40:44.158Z,61.67
2022-07-29T15:43:10.717Z,60.33
2022-07-29T15:45:40.337Z,59.91
2022-07-29T15:48:08.352Z,59.05
2022-07-29T15:50:34.877Z,59.34
2022-07-29T15:53:01.332Z,59.83
2022-07-29T15:55:27.896Z,61.22
2022-07-29T15:57:59.980Z,61.20
2022-07-29T16:00:27.204Z,60.42
2022-07-29T16:02:53.631Z,60.64
2022-07-29T16:05:20.060Z,58.84
2022-07-29T16:07:46.571Z,58.96
2022-07-29T16:10:13.103Z,60.36
2022-07-29T16:12:39.558Z,59.84
2022-07-29T16:15:09.959Z,60.17
2022-07-29T16:17:37.670Z,58.65
2022-07-29T16:20:05.230Z,58.90
2022-07-29T16:22:31.690Z,58.84
2022-07-29T16:24:58.077Z,60.04
2022-07-29T16:27:35.395Z,60.07
2022-07-29T16:30:05.887Z,60.01
2022-07-29T16:32:32.279Z,60.25
2022-07-29T16:34:58.697Z,61.51
2022-07-29T16:37:25.124Z,63.67
2022-07-29T16:39:55.328Z,62.11
2022-07-29T16:42:44.371Z,63.69
2022-07-29T16:45:08.827Z,62.73
2022-07-29T16:47:36.020Z,63.78
2022-07-29T16:50:02.524Z,65.31
2022-07-29T16:52:28.946Z,65.39
2022-07-29T16:54:55.348Z,64.96
2022-07-29T16:57:21.940Z,64.62
2022-07-29T16:59:50.829Z,64.62
2022-07-29T17:02:17.726Z,64.63
2022-07-29T17:04:44.208Z,65.73
2022-07-29T17:07:10.640Z,65.02
2022-07-29T17:09:37.250Z,64.84
2022-07-29T17:12:04.014Z,63.99
2022-07-29T17:14:31.028Z,64.85
2022-07-29T17:17:01.429Z,66.10
2022-07-29T17:19:30.257Z,66.06
2022-07-29T17:22:03.556Z,66.31
2022-07-29T17:24:35.728Z,65.62
2022-07-29T17:27:02.151Z,65.79
2022-07-29T17:29:28.569Z,66.20
2022-07-29T17:31:55.025Z,66.91
2022-07-29T17:34:21.473Z,66.94
2022-07-29T17:36:48.256Z,66.75
2022-07-29T17:39:14.664Z,66.04
2022-07-29T17:41:41.150Z,65.75
2022-07-29T17:44:09.263Z,66.13
2022-07-29T17:46:35.783Z,66.04
2022-07-29T17:49:02.430Z,66.35
2022-07-29T17:51:28.861Z,67.67
2022-07-29T17:53:55.360Z,66.95
2022-07-29T17:56:22.359Z,67.26
2022-07-29T17:58:48.770Z,68.06
2022-07-29T18:01:15.516Z,68.35
2022-07-29T18:03:42.583Z,68.84
2022-07-29T18:06:10.435Z,70.40
2022-07-29T18:08:37.298Z,70.15
2022-07-29T18:11:03.699Z,68.80
2022-07-29T18:13:30.150Z,68.76
2022-07-29T18:16:00.326Z,68.48
2022-07-29T18:18:27.244Z,69.01
2022-07-29T18:20:53.762Z,68.86
2022-07-29T18:23:20.186Z,66.89
2022-07-29T18:25:46.700Z,67.97
2022-07-29T18:28:13.525Z,68.09
2022-07-29T18:30:39.963Z,68.86
2022-07-29T18:33:23.937Z,68.64
2022-07-29T18:35:51.751Z,68.86
2022-07-29T18:38:18.574Z,68.86
2022-07-29T18:40:45.810Z,68.99
2022-07-29T18:43:13.028Z,68.23
2022-07-29T18:45:39.740Z,68.12
2022-07-29T18:48:08.317Z,68.95
2022-07-29T18:50:39.537Z,69.67
2022-07-29T18:53:06.073Z,70.09
2022-07-29T18:55:32.740Z,69.74
2022-07-29T18:57:59.155Z,70.65
2022-07-29T19:00:26.846Z,72.41
2022-07-29T19:02:53.769Z,74.97
2022-07-29T19:05:20.908Z,75.20
2022-07-29T19:07:47.326Z,79.27
2022-07-29T19:10:13.954Z,84.74
2022-07-29T19:12:40.400Z,88.94
2022-07-29T19:15:07.952Z,91.67
2022-07-29T19:17:34.429Z,90.79
2022-07-29T19:20:00.875Z,88.10
2022-07-29T19:22:27.700Z,91.26
2022-07-29T19:24:54.115Z,91.34
2022-07-29T19:27:20.515Z,92.27
2022-07-29T19:29:46.929Z,90.79
2022-07-29T19:32:14.421Z,91.13
2022-07-29T19:35:10.283Z,91.42
2022-07-29T19:37:37.242Z,92.40
2022-07-29T19:40:04.221Z,91.54
2022-07-29T19:42:30.631Z,93.53
2022-07-29T19:44:57.053Z,92.11
2022-07-29T19:47:23.466Z,93.08
2022-07-29T19:49:49.931Z,94.93
2022-07-29T19:52:16.389Z,95.86
2022-07-29T19:54:43.040Z,95.48
2022-07-29T19:57:09.663Z,95.70
2022-07-29T19:59:36.087Z,96.88
2022-07-29T20:02:02.649Z,95.67
2022-07-29T20:04:29.382Z,98.37
2022-07-29T20:07:01.206Z,97.42
2022-07-29T20:09:28.180Z,99.25
2022-07-29T20:11:54.648Z,98.54
2022-07-29T20:14:21.353Z,99.21
2022-07-29T20:16:47.794Z,98.67
2022-07-29T20:19:14.234Z,97.29
2022-07-29T20:21:40.623Z,100.00
2022-07-29T20:24:07.524Z,100.00
2022-07-29T20:26:34.022Z,100.00
2022-07-29T20:29:00.507Z,100.00
2022-07-29T20:31:27.542Z,100.00
2022-07-29T20:33:53.976Z,100.00
2022-07-29T20:36:20.494Z,100.00
2022-07-29T20:38:46.892Z,100.00
2022-07-29T20:41:14.013Z,100.00
2022-07-29T20:43:40.870Z,100.00
2022-07-29T20:46:07.358Z,100.00
2022-07-29T20:48:33.813Z,100.00
2022-07-29T20:51:00.236Z,100.00
2022-07-29T20:53:26.697Z,100.00
2022-07-29T20:55:53.388Z,100.00
2022-07-29T20:58:19.852Z,100.00
2022-07-29T21:00:46.441Z,100.00
2022-07-29T21:03:13.024Z,100.00
2022-07-29T21:05:43.812Z,100.00
2022-07-29T21:08:11.324Z,100.00
2022-07-29T21:10:37.813Z,100.00
2022-07-29T21:13:04.211Z,100.00
2022-07-29T21:15:30.807Z,100.00
2022-07-29T21:18:02.213Z,100.00
2022-07-29T21:20:29.432Z,100.00
2022-07-29T21:22:56.312Z,100.00
2022-07-29T21:25:23.299Z,100.00
2022-07-29T21:28:08.893Z,100.00
2022-07-29T21:30:35.835Z,100.00
2022-07-29T21:33:03.348Z,100.00
2022-07-29T21:35:35.957Z,100.00
2022-07-29T21:38:16.849Z,100.00
2022-07-29T21:40:44.314Z,100.00
2022-07-29T21:43:10.749Z,100.00
2022-07-29T21:45:37.344Z,100.00
2022-07-29T21:48:04.962Z,100.00
2022-07-29T21:50:31.542Z,100.00
2022-07-29T21:52:57.969Z,100.00
2022-07-29T21:55:26.661Z,100.00
2022-07-29T21:57:54.524Z,100.00
2022-07-29T22:00:21.236Z,100.00
2022-07-29T22:02:48.478Z,100.00
2022-07-29T22:05:14.929Z,100.00
2022-07-29T22:07:55.799Z,100.00
2022-07-29T22:10:24.670Z,100.00
2022-07-29T22:12:54.999Z,100.00
2022-07-29T22:15:21.821Z,100.00
2022-07-29T22:17:48.309Z,100.00
2022-07-29T22:20:14.849Z,100.00
2022-07-29T22:22:41.534Z,100.00
2022-07-29T22:25:08.589Z,100.00
2022-07-29T22:27:35.666Z,100.00
2022-07-29T22:30:02.131Z,100.00
2022-07-29T22:32:28.588Z,100.00
2022-07-29T22:34:55.015Z,100.00
2022-07-29T22:37:21.441Z,100.00
2022-07-29T22:39:47.858Z,100.00
2022-07-29T22:42:14.275Z,100.00
2022-07-29T22:44:40.734Z,100.00
2022-07-29T22:47:07.205Z,100.00
2022-07-29T22:49:33.614Z,100.00
2022-07-29T22:52:00.375Z,100.00
2022-07-29T22:54:26.998Z,100.00
2022-07-29T22:56:53.608Z,100.00
2022-07-29T22:59:20.029Z,100.00
2022-07-29T23:01:46.808Z,100.00
2022-07-29T23:04:13.340Z,100.00
2022-07-29T23:06:39.816Z,100.00
2022-07-29T23:09:06.256Z,100.00
2022-07-29T23:11:32.678Z,100.00
2022-07-29T23:13:59.085Z,100.00
2022-07-29T23:16:26.469Z,100.00
2022-07-29T23:18:53.915Z,100.00
2022-07-29T23:21:20.899Z,100.00
2022-07-29T23:23:48.406Z,100.00
2022-07-29T23:26:16.723Z,100.00
2022-07-29T23:28:46.298Z,100.00
2022-07-29T23:31:13.492Z,100.00
2022-07-29T23:33:40.925Z,100.00
2022-07-29T23:36:07.396Z,100.00
2022-07-29T23:38:33.811Z,100.00
2022-07-29T23:41:01.670Z,100.00
2022-07-29T23:43:28.364Z,100.00
2022-07-29T23:45:55.966Z,100.00
2022-07-29T23:48:24.683Z,100.00
2022-07-29T23:50:51.081Z,100.00
2022-07-29T23:53:17.605Z,100.00
2022-07-29T23:55:44.234Z,100.00
2022-07-29T23:58:10.751Z,100.00
